Terminal Aerodrome Forecast
Issued by NWS

Home | Current Version | Previous Version | Text Only | Print | Product List | Glossary Off
Versions: 1 2 3 4 5 6 7 8 9 10 11 12 13 14 15 16 17

756
FTUS43 KMPX 142110 AAA
TAFRWF
TAF AMD
KRWF 142110Z 1421/1518 04011G16KT 1 1/2SM -DZ BR OVC006
     FM150300 34015G28KT 4SM -SHRA BR OVC005
     FM150900 32014G21KT P6SM BKN020 OVC035
     FM151200 31010KT P6SM SCT035=

USA.gov is the U.S. government's official web portal to all federal, state and local government web resources and services.